createdAt,value
2019-01-09T00:00:33.257Z,22.15
2019-01-09T00:01:32.278Z,22.24
2019-01-09T00:02:32.280Z,22.22
2019-01-09T00:03:32.274Z,22.24
2019-01-09T00:04:32.245Z,22.18
2019-01-09T00:05:32.760Z,22.22
2019-01-09T00:06:32.231Z,22.24
2019-01-09T00:07:32.247Z,22.24
2019-01-09T00:08:32.763Z,22.25
2019-01-09T00:09:32.189Z,22.25
2019-01-09T00:10:32.179Z,22.17
2019-01-09T00:11:32.761Z,22.21
2019-01-09T00:12:32.189Z,22.21
2019-01-09T00:13:32.148Z,22.18
2019-01-09T00:14:32.137Z,22.14
2019-01-09T00:15:32.126Z,22.17
2019-01-09T00:16:32.113Z,22.30
2019-01-09T00:17:32.125Z,22.22
2019-01-09T00:18:32.097Z,22.20
2019-01-09T00:19:32.771Z,22.21
2019-01-09T00:20:32.077Z,22.22
2019-01-09T00:21:32.065Z,22.17
2019-01-09T00:22:32.082Z,22.22
2019-01-09T00:23:32.050Z,22.24
2019-01-09T00:24:32.034Z,22.18
2019-01-09T00:25:32.761Z,22.27
2019-01-09T00:26:32.040Z,22.20
2019-01-09T00:27:32.035Z,22.25
2019-01-09T00:28:31.996Z,22.14
2019-01-09T00:29:31.971Z,22.21
2019-01-09T00:30:31.962Z,22.27
2019-01-09T00:31:31.965Z,22.21
2019-01-09T00:32:32.280Z,22.24
2019-01-09T00:33:31.928Z,22.27
2019-01-09T00:34:32.766Z,22.22
2019-01-09T00:35:37.170Z,22.27
2019-01-09T00:36:31.896Z,22.18
2019-01-09T00:37:32.273Z,22.22
2019-01-09T00:38:32.769Z,22.27
2019-01-09T00:39:31.861Z,22.17
2019-01-09T00:40:32.761Z,22.25
2019-01-09T00:41:31.874Z,22.17
2019-01-09T00:42:31.843Z,22.17
2019-01-09T00:43:31.821Z,22.25
2019-01-09T00:44:31.804Z,22.22
2019-01-09T00:45:31.800Z,22.24
2019-01-09T00:46:31.785Z,22.14
2019-01-09T00:47:31.804Z,22.27
2019-01-09T00:48:31.773Z,22.21
2019-01-09T00:49:31.759Z,22.27
2019-01-09T00:50:31.751Z,22.14
2019-01-09T00:51:32.279Z,22.27
2019-01-09T00:52:31.790Z,22.15
2019-01-09T00:53:32.268Z,22.22
2019-01-09T00:54:31.700Z,22.28
2019-01-09T00:55:31.691Z,22.18
2019-01-09T00:56:32.268Z,22.15
2019-01-09T00:57:31.683Z,22.24
2019-01-09T00:58:31.670Z,22.18
2019-01-09T00:59:31.649Z,22.22
2019-01-09T01:00:32.264Z,22.27
2019-01-09T01:01:31.629Z,22.17
2019-01-09T01:02:31.630Z,22.15
2019-01-09T01:03:31.644Z,22.18
2019-01-09T01:04:32.287Z,22.18
2019-01-09T01:05:32.265Z,22.15
2019-01-09T01:06:31.578Z,22.22
2019-01-09T01:07:31.564Z,22.33
2019-01-09T01:08:31.786Z,22.22
2019-01-09T01:09:31.558Z,22.27
2019-01-09T01:10:31.542Z,22.21
2019-01-09T01:11:31.522Z,22.18
2019-01-09T01:12:31.570Z,22.22
2019-01-09T01:13:31.786Z,22.22
2019-01-09T01:14:32.280Z,22.18
2019-01-09T01:15:31.482Z,22.25
2019-01-09T01:16:31.467Z,22.17
2019-01-09T01:17:32.302Z,22.15
2019-01-09T01:18:31.779Z,22.24
2019-01-09T01:19:31.441Z,22.25
2019-01-09T01:20:31.412Z,22.20
2019-01-09T01:21:31.412Z,22.25
2019-01-09T01:22:31.403Z,22.22
2019-01-09T01:23:31.403Z,22.20
2019-01-09T01:24:31.380Z,22.28
2019-01-09T01:25:32.268Z,22.20
2019-01-09T01:26:32.330Z,22.22
2019-01-09T01:27:32.272Z,22.21
2019-01-09T01:28:31.795Z,22.18
2019-01-09T01:29:31.337Z,22.18
2019-01-09T01:30:31.321Z,22.25
2019-01-09T01:31:31.300Z,22.22
2019-01-09T01:32:32.270Z,22.25
2019-01-09T01:33:31.791Z,22.30
2019-01-09T01:34:31.277Z,22.24
2019-01-09T01:35:31.282Z,22.22
2019-01-09T01:36:31.247Z,22.31
2019-01-09T01:37:31.234Z,22.22
2019-01-09T01:38:31.235Z,22.21
2019-01-09T01:39:31.229Z,22.21
2019-01-09T01:40:31.197Z,22.24
2019-01-09T01:41:31.198Z,22.27
2019-01-09T01:42:31.176Z,22.28
2019-01-09T01:43:31.178Z,22.25
2019-01-09T01:44:31.172Z,22.21
2019-01-09T01:45:31.764Z,22.20
2019-01-09T01:46:31.136Z,22.20
2019-01-09T01:47:31.122Z,22.28
2019-01-09T01:48:31.142Z,22.21
2019-01-09T01:49:31.108Z,22.28
2019-01-09T01:50:31.772Z,22.18
2019-01-09T01:51:31.079Z,22.18
2019-01-09T01:52:31.069Z,22.22
2019-01-09T01:53:31.073Z,22.24
2019-01-09T01:54:31.774Z,22.20
2019-01-09T01:55:31.771Z,22.28
2019-01-09T01:56:31.024Z,22.25
2019-01-09T01:57:31.018Z,22.20
2019-01-09T01:58:31.020Z,22.27
2019-01-09T01:59:31.001Z,22.24
2019-01-09T02:00:30.983Z,22.24
2019-01-09T02:01:30.979Z,22.31
2019-01-09T02:02:30.954Z,22.20
2019-01-09T02:03:30.958Z,22.21
2019-01-09T02:04:30.946Z,22.24
2019-01-09T02:05:31.769Z,22.28
2019-01-09T02:06:30.914Z,22.20
2019-01-09T02:07:31.769Z,22.22
2019-01-09T02:08:31.283Z,22.24
2019-01-09T02:09:30.900Z,22.24
2019-01-09T02:10:31.768Z,22.27
2019-01-09T02:11:30.868Z,22.22
2019-01-09T02:12:30.859Z,22.22
2019-01-09T02:13:31.291Z,22.20
2019-01-09T02:14:30.837Z,22.27
2019-01-09T02:15:30.824Z,22.22
2019-01-09T02:16:31.784Z,22.25
2019-01-09T02:17:30.803Z,22.24
2019-01-09T02:18:30.807Z,22.22
2019-01-09T02:19:31.283Z,22.20
2019-01-09T02:20:30.757Z,22.22
2019-01-09T02:21:30.754Z,22.24
2019-01-09T02:22:31.278Z,22.21
2019-01-09T02:23:30.761Z,22.25
2019-01-09T02:24:30.719Z,22.27
2019-01-09T02:25:30.710Z,22.22
2019-01-09T02:26:30.696Z,22.25
2019-01-09T02:27:31.369Z,22.25
2019-01-09T02:28:30.795Z,22.25
2019-01-09T02:29:30.676Z,22.25
2019-01-09T02:30:30.648Z,22.25
2019-01-09T02:31:30.641Z,22.28
2019-01-09T02:32:30.646Z,22.27
2019-01-09T02:33:30.839Z,22.18
2019-01-09T02:34:30.616Z,22.20
2019-01-09T02:35:31.273Z,22.25
2019-01-09T02:36:30.591Z,22.22
2019-01-09T02:37:30.600Z,22.27
2019-01-09T02:38:30.787Z,22.25
2019-01-09T02:39:30.555Z,22.22
2019-01-09T02:40:31.288Z,22.20
2019-01-09T02:41:30.535Z,22.18
2019-01-09T02:42:30.529Z,22.18
2019-01-09T02:43:30.796Z,22.21
2019-01-09T02:44:32.452Z,22.21
2019-01-09T02:45:31.294Z,22.21
2019-01-09T02:46:30.479Z,22.21
2019-01-09T02:47:30.471Z,22.25
2019-01-09T02:48:30.480Z,22.22
2019-01-09T02:49:30.448Z,22.27
2019-01-09T02:50:30.441Z,22.17
2019-01-09T02:51:30.431Z,22.22
2019-01-09T02:52:31.272Z,22.28
2019-01-09T02:53:30.415Z,22.28
2019-01-09T02:54:30.412Z,22.20
2019-01-09T02:55:30.380Z,22.25
2019-01-09T02:56:30.378Z,22.22
2019-01-09T02:57:30.364Z,22.18
2019-01-09T02:58:30.369Z,22.24
2019-01-09T02:59:30.340Z,22.22
2019-01-09T03:00:30.328Z,22.24
2019-01-09T03:01:30.335Z,22.15
2019-01-09T03:02:30.306Z,22.24
2019-01-09T03:03:30.329Z,22.21
2019-01-09T03:04:30.295Z,22.21
2019-01-09T03:05:30.780Z,22.28
2019-01-09T03:06:30.290Z,22.20
2019-01-09T03:07:30.787Z,22.25
2019-01-09T03:08:30.331Z,22.27
2019-01-09T03:09:30.250Z,22.21
2019-01-09T03:10:30.216Z,22.21
2019-01-09T03:11:30.778Z,22.21
2019-01-09T03:12:30.203Z,22.25
2019-01-09T03:13:30.186Z,22.24
2019-01-09T03:14:30.192Z,22.21
2019-01-09T03:15:30.226Z,22.20
2019-01-09T03:16:30.144Z,22.20
2019-01-09T03:17:30.778Z,22.22
2019-01-09T03:18:30.782Z,22.27
2019-01-09T03:19:30.174Z,22.21
2019-01-09T03:20:30.108Z,22.17
2019-01-09T03:21:30.094Z,22.20
2019-01-09T03:22:30.095Z,22.20
2019-01-09T03:23:30.074Z,22.22
2019-01-09T03:24:30.160Z,22.21
2019-01-09T03:25:30.064Z,22.27
2019-01-09T03:26:30.037Z,22.22
2019-01-09T03:27:30.027Z,22.22
2019-01-09T03:28:30.021Z,22.21
2019-01-09T03:29:30.302Z,22.27
2019-01-09T03:30:30.011Z,22.27
2019-01-09T03:31:30.786Z,22.20
2019-01-09T03:32:29.980Z,22.25
2019-01-09T03:33:29.964Z,22.21
2019-01-09T03:34:29.965Z,22.24
2019-01-09T03:35:29.944Z,22.22
2019-01-09T03:36:32.808Z,22.20
2019-01-09T03:37:29.938Z,22.20
2019-01-09T03:38:29.912Z,22.17
2019-01-09T03:39:29.906Z,22.15
2019-01-09T03:40:29.883Z,22.24
2019-01-09T03:41:29.872Z,22.25
2019-01-09T03:42:30.790Z,22.18
2019-01-09T03:43:29.857Z,22.20
2019-01-09T03:44:29.859Z,22.18
2019-01-09T03:45:29.837Z,22.25
2019-01-09T03:46:30.776Z,22.15
2019-01-09T03:47:29.816Z,22.25
2019-01-09T03:48:29.798Z,22.25
2019-01-09T03:49:29.803Z,22.20
2019-01-09T03:50:30.284Z,22.18
2019-01-09T03:51:30.278Z,22.20
2019-01-09T03:52:29.775Z,22.15
2019-01-09T03:53:29.749Z,22.21
2019-01-09T03:54:29.745Z,22.18
2019-01-09T03:55:29.722Z,22.22
2019-01-09T03:56:29.726Z,22.22
2019-01-09T03:57:30.283Z,22.20
2019-01-09T03:58:30.296Z,22.21
2019-01-09T03:59:29.692Z,22.27
2019-01-09T04:00:30.277Z,22.20
2019-01-09T04:01:29.651Z,22.18
2019-01-09T04:02:29.662Z,22.14
2019-01-09T04:03:30.286Z,22.25
2019-01-09T04:04:29.640Z,22.27
2019-01-09T04:05:29.613Z,22.17
2019-01-09T04:06:30.278Z,22.20
2019-01-09T04:07:29.604Z,22.28
2019-01-09T04:08:29.586Z,22.21
2019-01-09T04:09:29.597Z,22.21
2019-01-09T04:10:29.558Z,22.17
2019-01-09T04:11:30.273Z,22.22
2019-01-09T04:12:29.540Z,22.20
2019-01-09T04:13:29.532Z,22.21
2019-01-09T04:14:29.526Z,22.17
2019-01-09T04:15:29.495Z,22.21
2019-01-09T04:16:29.487Z,22.20
2019-01-09T04:17:29.478Z,22.17
2019-01-09T04:18:29.469Z,22.22
2019-01-09T04:19:29.833Z,22.25
2019-01-09T04:20:29.442Z,22.22
2019-01-09T04:21:30.278Z,22.20
2019-01-09T04:22:29.423Z,22.24
2019-01-09T04:23:29.409Z,22.22
2019-01-09T04:24:29.789Z,22.20
2019-01-09T04:25:29.391Z,22.21
2019-01-09T04:26:30.278Z,22.22
2019-01-09T04:27:29.368Z,22.28
2019-01-09T04:28:29.352Z,22.17
2019-01-09T04:29:29.359Z,22.22
2019-01-09T04:30:29.338Z,22.20
2019-01-09T04:31:30.278Z,22.24
2019-01-09T04:32:29.310Z,22.20
2019-01-09T04:33:29.310Z,22.27
2019-01-09T04:34:29.311Z,22.15
2019-01-09T04:35:29.284Z,22.25
2019-01-09T04:36:29.274Z,22.20
2019-01-09T04:37:29.262Z,22.17
2019-01-09T04:38:29.782Z,22.24
2019-01-09T04:39:29.260Z,22.20
2019-01-09T04:40:29.228Z,22.22
2019-01-09T04:41:29.210Z,22.24
2019-01-09T04:42:29.208Z,22.18
2019-01-09T04:43:29.191Z,22.24
2019-01-09T04:44:29.197Z,22.28
2019-01-09T04:45:29.776Z,22.25
2019-01-09T04:46:29.157Z,22.33
2019-01-09T04:47:29.166Z,22.22
2019-01-09T04:48:29.782Z,22.20
2019-01-09T04:49:29.305Z,22.22
2019-01-09T04:50:29.125Z,22.28
2019-01-09T04:51:29.149Z,22.18
2019-01-09T04:52:29.800Z,22.24
2019-01-09T04:53:29.794Z,22.21
2019-01-09T04:54:29.088Z,22.22
2019-01-09T04:55:29.776Z,22.15
2019-01-09T04:56:29.084Z,22.18
2019-01-09T04:57:29.033Z,22.24
2019-01-09T04:58:29.027Z,22.25
2019-01-09T04:59:29.037Z,22.22
2019-01-09T05:00:29.788Z,22.24
2019-01-09T05:01:28.996Z,22.27
2019-01-09T05:02:29.789Z,22.24
2019-01-09T05:03:28.969Z,22.25
2019-01-09T05:04:29.293Z,22.30
2019-01-09T05:05:29.779Z,22.21
2019-01-09T05:06:29.790Z,22.25
2019-01-09T05:07:28.926Z,22.24
2019-01-09T05:08:28.912Z,22.22
2019-01-09T05:09:28.923Z,22.15
2019-01-09T05:10:28.891Z,22.21
2019-01-09T05:11:28.883Z,22.20
2019-01-09T05:12:29.814Z,22.24
2019-01-09T05:13:28.881Z,22.22
2019-01-09T05:14:28.852Z,22.24
2019-01-09T05:15:28.886Z,22.18
2019-01-09T05:16:28.831Z,22.18
2019-01-09T05:17:29.786Z,22.20
2019-01-09T05:18:29.784Z,22.22
2019-01-09T05:19:28.795Z,22.24
2019-01-09T05:20:28.807Z,22.24
2019-01-09T05:21:28.774Z,22.15
2019-01-09T05:22:29.281Z,22.27
2019-01-09T05:23:28.757Z,22.18
2019-01-09T05:24:28.743Z,22.24
2019-01-09T05:25:28.793Z,22.20
2019-01-09T05:26:28.721Z,22.22
2019-01-09T05:27:28.712Z,22.22
2019-01-09T05:28:28.704Z,22.24
2019-01-09T05:29:28.690Z,22.25
2019-01-09T05:30:28.706Z,22.24
2019-01-09T05:31:28.664Z,22.24
2019-01-09T05:32:28.651Z,22.25
2019-01-09T05:33:28.646Z,22.15
2019-01-09T05:34:28.647Z,22.22
2019-01-09T05:35:28.639Z,22.25
2019-01-09T05:36:28.608Z,22.15
2019-01-09T05:37:28.596Z,22.24
2019-01-09T05:38:28.595Z,22.27
2019-01-09T05:39:28.589Z,22.25
2019-01-09T05:40:28.793Z,22.24
2019-01-09T05:41:29.286Z,22.24
2019-01-09T05:42:28.542Z,22.24
2019-01-09T05:43:28.534Z,22.24
2019-01-09T05:44:28.526Z,22.21
2019-01-09T05:45:28.535Z,22.21
2019-01-09T05:46:28.521Z,22.28
2019-01-09T05:47:28.491Z,22.20
2019-01-09T05:48:28.476Z,22.22
2019-01-09T05:49:28.472Z,22.22
2019-01-09T05:50:28.811Z,22.21
2019-01-09T05:51:28.443Z,22.27
2019-01-09T05:52:28.428Z,22.22
2019-01-09T05:53:28.429Z,22.24
2019-01-09T05:54:28.412Z,22.27
2019-01-09T05:55:28.414Z,22.24
2019-01-09T05:56:28.393Z,22.21
2019-01-09T05:57:29.284Z,22.25
2019-01-09T05:58:28.370Z,22.24
2019-01-09T05:59:29.283Z,22.22
2019-01-09T06:00:28.365Z,22.17
2019-01-09T06:01:28.333Z,22.24
2019-01-09T06:02:29.296Z,22.18
2019-01-09T06:03:29.285Z,22.21
2019-01-09T06:04:28.305Z,22.24
2019-01-09T06:05:28.314Z,22.25
2019-01-09T06:06:28.294Z,22.17
2019-01-09T06:07:28.800Z,22.27
2019-01-09T06:08:28.783Z,22.24
2019-01-09T06:09:28.247Z,22.18
2019-01-09T06:10:28.262Z,22.22
2019-01-09T06:11:28.222Z,22.17
2019-01-09T06:12:28.211Z,22.22
2019-01-09T06:13:28.795Z,22.22
2019-01-09T06:14:28.192Z,22.21
2019-01-09T06:15:28.308Z,22.20
2019-01-09T06:16:28.170Z,22.21
2019-01-09T06:17:28.160Z,22.25
2019-01-09T06:18:28.150Z,22.20
2019-01-09T06:19:28.138Z,22.17
2019-01-09T06:20:28.163Z,22.22
2019-01-09T06:21:28.134Z,22.25
2019-01-09T06:22:28.101Z,22.25
2019-01-09T06:23:28.090Z,22.24
2019-01-09T06:24:28.083Z,22.27
2019-01-09T06:25:28.301Z,22.27
2019-01-09T06:26:28.074Z,22.17
2019-01-09T06:27:28.791Z,22.22
2019-01-09T06:28:28.793Z,22.20
2019-01-09T06:29:28.031Z,22.24
2019-01-09T06:30:28.037Z,22.17
2019-01-09T06:31:28.011Z,22.21
2019-01-09T06:32:27.995Z,22.22
2019-01-09T06:33:28.784Z,22.25
2019-01-09T06:34:27.971Z,22.24
2019-01-09T06:35:27.991Z,22.22
2019-01-09T06:36:27.954Z,22.22
2019-01-09T06:37:28.795Z,22.22
2019-01-09T06:38:27.930Z,22.22
2019-01-09T06:39:27.917Z,22.27
2019-01-09T06:40:27.923Z,22.22
2019-01-09T06:41:27.897Z,22.21
2019-01-09T06:42:28.795Z,22.27
2019-01-09T06:43:27.869Z,22.20
2019-01-09T06:44:27.864Z,22.31
2019-01-09T06:45:27.864Z,22.28
2019-01-09T06:46:27.847Z,22.25
2019-01-09T06:47:27.830Z,22.27
2019-01-09T06:48:27.818Z,22.27
2019-01-09T06:49:27.829Z,22.30
2019-01-09T06:50:27.819Z,22.27
2019-01-09T06:51:27.787Z,22.28
2019-01-09T06:52:27.778Z,22.21
2019-01-09T06:53:27.768Z,22.24
2019-01-09T06:54:27.790Z,22.27
2019-01-09T06:55:27.789Z,22.25
2019-01-09T06:56:27.737Z,22.22
2019-01-09T06:57:27.721Z,22.24
2019-01-09T06:58:27.710Z,22.22
2019-01-09T06:59:28.305Z,22.22
2019-01-09T07:00:27.798Z,22.24
2019-01-09T07:01:27.676Z,22.25
2019-01-09T07:02:27.665Z,22.28
2019-01-09T07:03:28.291Z,22.28
2019-01-09T07:04:27.645Z,22.17
2019-01-09T07:05:27.651Z,22.27
2019-01-09T07:06:27.628Z,22.25
2019-01-09T07:07:35.792Z,22.18
2019-01-09T07:08:27.602Z,22.27
2019-01-09T07:09:27.591Z,22.27
2019-01-09T07:10:27.800Z,22.22
2019-01-09T07:11:27.564Z,22.22
2019-01-09T07:12:27.555Z,22.21
2019-01-09T07:13:27.561Z,22.24
2019-01-09T07:14:27.536Z,22.21
2019-01-09T07:15:27.540Z,22.22
2019-01-09T07:16:27.514Z,22.22
2019-01-09T07:17:28.286Z,22.21
2019-01-09T07:18:27.491Z,22.21
2019-01-09T07:19:27.481Z,22.25
2019-01-09T07:20:27.470Z,22.18
2019-01-09T07:21:27.471Z,22.15
2019-01-09T07:22:27.449Z,22.21
2019-01-09T07:23:27.440Z,22.21
2019-01-09T07:24:28.291Z,22.24
2019-01-09T07:25:27.415Z,22.20
2019-01-09T07:26:27.417Z,22.22
2019-01-09T07:27:27.393Z,22.17
2019-01-09T07:28:27.384Z,22.22
2019-01-09T07:29:27.380Z,22.18
2019-01-09T07:30:27.368Z,22.22
2019-01-09T07:31:27.365Z,22.27
2019-01-09T07:32:27.338Z,22.33
2019-01-09T07:33:27.325Z,22.27
2019-01-09T07:34:28.289Z,22.24
2019-01-09T07:35:27.312Z,22.27
2019-01-09T07:36:27.810Z,22.30
2019-01-09T07:37:27.284Z,22.28
2019-01-09T07:38:27.272Z,22.25
2019-01-09T07:39:27.789Z,22.20
2019-01-09T07:40:27.249Z,22.22
2019-01-09T07:41:27.271Z,22.28
2019-01-09T07:42:27.240Z,22.22
2019-01-09T07:43:27.219Z,22.28
2019-01-09T07:44:27.797Z,22.24
2019-01-09T07:45:27.201Z,22.20
2019-01-09T07:46:27.315Z,22.24
2019-01-09T07:47:27.187Z,22.27
2019-01-09T07:48:27.165Z,22.25
2019-01-09T07:49:27.869Z,22.20
2019-01-09T07:50:27.143Z,22.22
2019-01-09T07:51:27.147Z,22.25
2019-01-09T07:52:27.128Z,22.27
2019-01-09T07:53:27.792Z,22.27
2019-01-09T07:54:27.800Z,22.17
2019-01-09T07:55:27.147Z,22.22
2019-01-09T07:56:27.093Z,22.20
2019-01-09T07:57:27.073Z,22.24
2019-01-09T07:58:27.063Z,22.22
2019-01-09T07:59:27.047Z,22.30
2019-01-09T08:00:27.035Z,22.31
2019-01-09T08:01:27.805Z,22.33
2019-01-09T08:02:27.799Z,22.30
2019-01-09T08:03:27.000Z,22.36
2019-01-09T08:04:27.793Z,22.36
2019-01-09T08:05:26.980Z,22.36
2019-01-09T08:06:26.986Z,22.40
2019-01-09T08:07:26.956Z,22.40
2019-01-09T08:08:26.946Z,22.39
2019-01-09T08:09:27.790Z,22.36
2019-01-09T08:10:26.924Z,22.27
2019-01-09T08:11:26.949Z,22.36
2019-01-09T08:12:26.908Z,22.39
2019-01-09T08:13:26.899Z,22.35
2019-01-09T08:14:27.875Z,22.36
2019-01-09T08:15:27.790Z,22.36
2019-01-09T08:16:26.873Z,22.36
2019-01-09T08:17:26.848Z,22.30
2019-01-09T08:18:26.850Z,22.33
2019-01-09T08:19:26.829Z,22.33
2019-01-09T08:20:26.820Z,22.25
2019-01-09T08:21:27.333Z,22.20
2019-01-09T08:22:26.801Z,22.10
2019-01-09T08:23:26.796Z,22.14
2019-01-09T08:24:27.295Z,22.14
2019-01-09T08:25:26.765Z,22.06
2019-01-09T08:26:26.765Z,22.12
2019-01-09T08:27:27.293Z,22.06
2019-01-09T08:28:26.729Z,22.09
2019-01-09T08:29:26.724Z,22.07
2019-01-09T08:30:26.711Z,22.07
2019-01-09T08:31:26.808Z,22.07
2019-01-09T08:32:26.720Z,21.98
2019-01-09T08:33:26.681Z,21.99
2019-01-09T08:34:26.667Z,21.99
2019-01-09T08:35:26.655Z,21.98
2019-01-09T08:36:26.658Z,22.03
2019-01-09T08:37:26.678Z,22.03
2019-01-09T08:38:26.624Z,21.98
2019-01-09T08:39:27.467Z,21.91
2019-01-09T08:40:27.298Z,22.00
2019-01-09T08:41:26.603Z,21.94
2019-01-09T08:42:27.306Z,21.92
2019-01-09T08:43:26.575Z,22.00
2019-01-09T08:44:27.304Z,21.99
2019-01-09T08:45:26.557Z,21.98
2019-01-09T08:46:26.813Z,22.03
2019-01-09T08:47:26.535Z,22.06
2019-01-09T08:48:26.515Z,22.07
2019-01-09T08:49:27.299Z,22.10
2019-01-09T08:50:27.323Z,22.05
2019-01-09T08:51:26.497Z,22.17
2019-01-09T08:52:26.463Z,22.14
2019-01-09T08:53:26.459Z,22.10
2019-01-09T08:54:26.449Z,22.10
2019-01-09T08:55:26.432Z,22.22
2019-01-09T08:56:26.453Z,22.27
2019-01-09T08:57:27.295Z,22.24
2019-01-09T08:58:27.300Z,22.22
2019-01-09T08:59:26.393Z,22.24
2019-01-09T09:00:26.382Z,22.30
2019-01-09T09:01:26.827Z,22.33
2019-01-09T09:02:26.356Z,22.30
2019-01-09T09:03:26.346Z,22.40
2019-01-09T09:04:26.329Z,22.47
2019-01-09T09:05:27.317Z,22.46
2019-01-09T09:06:26.346Z,22.42
2019-01-09T09:07:26.305Z,22.47
2019-01-09T09:08:26.796Z,22.55
2019-01-09T09:09:26.278Z,22.52
2019-01-09T09:10:26.265Z,22.52
2019-01-09T09:11:26.273Z,22.52
2019-01-09T09:12:26.257Z,22.57
2019-01-09T09:13:26.232Z,22.52
2019-01-09T09:14:26.798Z,22.52
2019-01-09T09:15:26.210Z,22.55
2019-01-09T09:16:26.218Z,22.46
2019-01-09T09:17:26.194Z,22.47
2019-01-09T09:18:26.178Z,22.61
2019-01-09T09:19:26.168Z,22.51
2019-01-09T09:20:26.157Z,22.54
2019-01-09T09:21:26.313Z,22.57
2019-01-09T09:22:26.133Z,22.54
2019-01-09T09:23:26.128Z,22.55
2019-01-09T09:24:26.142Z,22.52
2019-01-09T09:25:26.123Z,22.51
2019-01-09T09:26:26.112Z,22.52
2019-01-09T09:27:26.081Z,22.52
2019-01-09T09:28:26.069Z,22.52
2019-01-09T09:29:26.796Z,22.52
2019-01-09T09:30:26.048Z,22.55
2019-01-09T09:31:26.209Z,22.54
2019-01-09T09:32:26.306Z,22.54
2019-01-09T09:33:26.020Z,22.47
2019-01-09T09:34:26.006Z,22.52
2019-01-09T09:35:25.996Z,22.52
2019-01-09T09:36:26.802Z,22.54
2019-01-09T09:37:25.985Z,22.54
2019-01-09T09:38:25.970Z,22.64
2019-01-09T09:39:26.800Z,22.51
2019-01-09T09:40:25.939Z,22.47
2019-01-09T09:41:25.927Z,22.52
2019-01-09T09:42:25.937Z,22.54
2019-01-09T09:43:25.906Z,22.61
2019-01-09T09:44:25.895Z,22.52
2019-01-09T09:45:25.887Z,22.52
2019-01-09T09:46:26.821Z,22.52
2019-01-09T09:47:26.329Z,22.51
2019-01-09T09:48:25.854Z,22.49
2019-01-09T09:49:25.846Z,22.54
2019-01-09T09:50:25.833Z,22.62
2019-01-09T09:51:25.819Z,22.52
2019-01-09T09:52:26.314Z,22.47
2019-01-09T09:53:25.804Z,22.54
2019-01-09T09:54:26.298Z,22.55
2019-01-09T09:55:26.294Z,22.54
2019-01-09T09:56:26.332Z,22.64
2019-01-09T09:57:25.818Z,22.62
2019-01-09T09:58:25.744Z,22.47
2019-01-09T09:59:26.312Z,22.49
2019-01-09T10:00:25.735Z,22.54
2019-01-09T10:01:25.708Z,22.49
2019-01-09T10:02:25.715Z,22.54
2019-01-09T10:03:25.698Z,22.55
2019-01-09T10:04:25.682Z,22.45
2019-01-09T10:05:25.668Z,22.52
2019-01-09T10:06:26.297Z,22.42
2019-01-09T10:07:25.666Z,22.40
2019-01-09T10:08:29.506Z,22.36
2019-01-09T10:09:26.324Z,22.37
2019-01-09T10:10:25.634Z,22.31
2019-01-09T10:11:26.308Z,22.17
2019-01-09T10:12:26.321Z,22.22
2019-01-09T10:13:26.303Z,22.24
2019-01-09T10:14:25.581Z,22.20
2019-01-09T10:15:26.422Z,22.05
2019-01-09T10:16:25.560Z,22.10
2019-01-09T10:17:26.329Z,22.07
2019-01-09T10:18:25.524Z,22.03
2019-01-09T10:19:26.422Z,21.99
2019-01-09T10:20:26.296Z,22.02
2019-01-09T10:21:25.505Z,22.09
2019-01-09T10:22:26.323Z,21.94
2019-01-09T10:23:26.327Z,22.00
2019-01-09T10:24:25.491Z,22.00
2019-01-09T10:25:25.468Z,21.99
2019-01-09T10:26:25.535Z,22.06
2019-01-09T10:27:25.812Z,22.06
2019-01-09T10:28:25.407Z,22.00
2019-01-09T10:29:25.400Z,22.05
2019-01-09T10:30:26.301Z,22.03
2019-01-09T10:31:25.570Z,22.05
2019-01-09T10:32:25.379Z,22.07
2019-01-09T10:33:26.301Z,22.07
2019-01-09T10:34:25.364Z,22.10
2019-01-09T10:35:26.307Z,22.05
2019-01-09T10:36:26.308Z,22.10
2019-01-09T10:37:26.322Z,22.09
2019-01-09T10:38:25.302Z,22.15
2019-01-09T10:39:25.838Z,22.17
2019-01-09T10:40:25.800Z,22.27
2019-01-09T10:41:25.812Z,22.15
2019-01-09T10:42:26.852Z,22.18
2019-01-09T10:43:25.255Z,22.24
2019-01-09T10:44:25.243Z,22.27
2019-01-09T10:45:25.813Z,22.27
2019-01-09T10:46:25.279Z,22.30
2019-01-09T10:47:25.218Z,22.27
2019-01-09T10:48:25.820Z,22.36
2019-01-09T10:49:25.186Z,22.37
2019-01-09T10:50:25.906Z,22.39
2019-01-09T10:51:25.179Z,22.36
2019-01-09T10:52:25.167Z,22.40
2019-01-09T10:53:25.801Z,22.36
2019-01-09T10:54:25.139Z,22.36
2019-01-09T10:55:25.127Z,22.42
2019-01-09T10:56:25.910Z,22.31
2019-01-09T10:57:25.319Z,22.33
2019-01-09T10:58:25.095Z,22.33
2019-01-09T10:59:25.809Z,22.42
2019-01-09T11:00:25.809Z,22.36
2019-01-09T11:01:25.147Z,22.27
2019-01-09T11:02:25.324Z,22.36
2019-01-09T11:03:25.814Z,22.35
2019-01-09T11:04:25.803Z,22.40
2019-01-09T11:05:25.804Z,22.37
2019-01-09T11:06:25.808Z,22.36
2019-01-09T11:07:25.831Z,22.43
2019-01-09T11:08:25.802Z,22.43
2019-01-09T11:09:25.804Z,22.42
2019-01-09T11:10:25.801Z,22.45
2019-01-09T11:11:25.812Z,22.40
2019-01-09T11:12:25.343Z,22.52
2019-01-09T11:13:25.811Z,22.51
2019-01-09T11:14:24.924Z,22.57
2019-01-09T11:15:24.929Z,22.64
2019-01-09T11:16:25.809Z,22.68
2019-01-09T11:17:24.900Z,22.72
2019-01-09T11:18:25.802Z,22.79
2019-01-09T11:19:25.012Z,22.83
2019-01-09T11:20:27.245Z,22.86
2019-01-09T11:21:25.808Z,22.95
2019-01-09T11:22:25.838Z,23.00
2019-01-09T11:23:24.814Z,23.01
2019-01-09T11:24:25.341Z,23.09
2019-01-09T11:25:24.796Z,23.02
2019-01-09T11:26:25.302Z,23.09
2019-01-09T11:27:25.393Z,23.13
2019-01-09T11:28:24.762Z,23.09
2019-01-09T11:29:25.304Z,23.13
2019-01-09T11:30:24.743Z,23.10
2019-01-09T11:31:25.329Z,23.10
2019-01-09T11:32:24.732Z,23.16
2019-01-09T11:33:24.723Z,23.17
2019-01-09T11:34:25.443Z,23.16
2019-01-09T11:35:25.311Z,23.19
2019-01-09T11:36:24.677Z,23.20
2019-01-09T11:37:25.360Z,23.17
2019-01-09T11:38:24.814Z,23.25
2019-01-09T11:39:25.304Z,23.20
2019-01-09T11:40:25.308Z,23.22
2019-01-09T11:41:24.621Z,23.27
2019-01-09T11:42:25.310Z,23.22
2019-01-09T11:43:24.814Z,23.23
2019-01-09T11:44:24.594Z,23.23
2019-01-09T11:45:24.584Z,23.32
2019-01-09T11:46:24.557Z,23.33
2019-01-09T11:47:25.334Z,23.31
2019-01-09T11:48:24.550Z,23.31
2019-01-09T11:49:24.527Z,23.28
2019-01-09T11:50:25.364Z,23.20
2019-01-09T11:51:24.506Z,23.28
2019-01-09T11:52:24.491Z,23.31
2019-01-09T11:53:24.826Z,23.25
2019-01-09T11:54:25.331Z,23.20
2019-01-09T11:55:24.459Z,23.35
2019-01-09T11:56:25.318Z,23.35
2019-01-09T11:57:24.437Z,23.31
2019-01-09T11:58:24.454Z,23.32
2019-01-09T11:59:24.425Z,23.35
2019-01-09T12:00:25.306Z,23.40
2019-01-09T12:01:24.393Z,23.35
2019-01-09T12:02:24.389Z,23.36
2019-01-09T12:03:24.847Z,23.36
2019-01-09T12:04:25.312Z,23.36
2019-01-09T12:05:25.304Z,23.36
2019-01-09T12:06:25.314Z,23.32
2019-01-09T12:07:24.356Z,23.31
2019-01-09T12:08:24.335Z,23.32
2019-01-09T12:09:24.809Z,23.35
2019-01-09T12:10:30.019Z,23.35
2019-01-09T12:11:24.280Z,23.35
2019-01-09T12:12:24.273Z,23.35
2019-01-09T12:13:24.284Z,23.32
2019-01-09T12:14:24.255Z,23.32
2019-01-09T12:15:24.807Z,23.33
2019-01-09T12:16:24.249Z,23.31
2019-01-09T12:17:24.224Z,23.25
2019-01-09T12:18:24.856Z,23.36
2019-01-09T12:19:24.190Z,23.35
2019-01-09T12:20:24.180Z,23.23
2019-01-09T12:21:24.474Z,23.23
2019-01-09T12:22:24.158Z,23.31
2019-01-09T12:23:24.832Z,23.23
2019-01-09T12:24:24.137Z,23.25
2019-01-09T12:25:24.821Z,23.23
2019-01-09T12:26:24.845Z,23.22
2019-01-09T12:27:24.201Z,23.16
2019-01-09T12:28:24.328Z,23.25
2019-01-09T12:29:24.126Z,23.19
2019-01-09T12:30:24.078Z,23.20
2019-01-09T12:31:24.811Z,23.16
2019-01-09T12:32:24.831Z,23.22
2019-01-09T12:33:24.054Z,23.17
2019-01-09T12:34:24.034Z,23.19
2019-01-09T12:35:24.827Z,23.12
2019-01-09T12:36:24.004Z,23.15
2019-01-09T12:37:23.990Z,23.13
2019-01-09T12:38:24.830Z,23.12
2019-01-09T12:39:24.819Z,23.15
2019-01-09T12:40:23.962Z,23.16
2019-01-09T12:41:24.814Z,23.13
2019-01-09T12:42:24.817Z,23.07
2019-01-09T12:43:23.938Z,23.13
2019-01-09T12:44:23.911Z,23.01
2019-01-09T12:45:24.816Z,23.02
2019-01-09T12:46:24.813Z,23.10
2019-01-09T12:47:24.813Z,23.04
2019-01-09T12:48:24.835Z,23.12
2019-01-09T12:49:24.812Z,23.13
2019-01-09T12:50:23.847Z,23.13
2019-01-09T12:51:24.813Z,23.09
2019-01-09T12:52:23.820Z,23.17